Weather observations for the past three days for
Milford Municipal Airport
Metric (Imperial)
Date Time (mdt) Wind (kph) Vis. (km) Weather Sky Cond. Temperature (ºC) Relative Humidity Wind Chill (°C) Heat Index (°C) Pressure Precipitation (cm)
Air Dwpt 6 hour altimeter (cm) sea level (mb) 1 hr 3 hr 6 hr
Max. Min.
02 14:52 Calm 16.09 Fair CLR 21.7 -11.1 10% 76.38 1014.5
02 13:52 Vrbl 9 16.09 Fair CLR 21.7 -11.1 10% 76.43 1015.1
02 12:52 Calm 16.09 Fair CLR 20 -11.1 11% 76.5 1016.5
02 11:52 Vrbl 9 G 28 16.09 Fair CLR 19.4 -11.7 19.4 0 11% 76.58 1017.1
02 10:52 Vrbl 6 16.09 Fair CLR 16.7 -7.2 19% 76.63 1018.0
02 09:52 S 7 16.09 Fair CLR 13.3 -7.2 24% 76.63 1019.0
02 08:52 S 11 16.09 Fair CLR 9.4 -6.7 32% 8 76.66 1019.4
02 07:52 S 9 16.09 Fair CLR 5 -8.3 38% 3 76.66 1019.0
02 06:52 S 9 16.09 Fair CLR 0 -8.3 54% -3 76.61 1019.1
02 04:52 S 9 16.09 Fair CLR 2.2 -10 40% -0 76.61 1018.4
02 03:52 W 17 16.09 Fair CLR 5 -8.9 36% 2 76.58 1017.9
02 02:52 SW 7 16.09 Fair CLR 3.9 -9.4 38% 2 76.61 1018.4
02 01:52 W 15 16.09 Fair CLR 6.1 -8.9 34% 3 76.61 1017.9
02 00:52 N 11 16.09 Fair CLR 5 -10 33% 3 76.58 1018.2
01 23:52 NW 15 16.09 Fair CLR 7.8 -9.4 19.4 6.1 29% 6 76.56 1017.5
01 22:52 NE 7 16.09 Fair CLR 8.9 -12.2 21% 8 76.53 1017.1
01 21:52 N 11 16.09 Fair CLR 8.9 -12.8 20% 7 76.48 1016.8
01 20:52 NW 13 16.09 Fair CLR 11.7 -12.2 18% 76.4 1015.7
01 19:52 N 19 16.09 Fair CLR 17.2 -11.1 13% 76.35 1014.9
01 18:52 N 20 16.09 Fair CLR 18.3 -10.6 13% 76.35 1015.7
01 17:52 N 26 G 43 16.09 Fair CLR 18.9 -11.1 20 15 12% 76.35 1015.5
01 16:52 N 26 G 37 16.09 Fair CLR 19.4 -10 13% 76.35 1015.7
01 15:52 N 31 G 43 16.09 Fair CLR 18.9 -10 13% 76.4 1015.5
01 14:52 N 20 G 44 16.09 Fair CLR 18.3 -10 14% 76.45 1016.3
01 13:52 N 17 G 37 16.09 A Few Clouds FEW090 17.8 -9.4 15% 76.45 1016.2
01 12:52 N 24 G 39 16.09 Partly Cloudy SCT085 16.1 -6.1 21% 76.48 1016.6
01 11:52 NE 30 G 39 16.09 Fair CLR 16.1 -5.6 16.1 -1.1 22% 76.53 1016.9
01 10:52 N 17 16.09 Fair CLR 14.4 -5 26% 76.53 1017.3
01 09:52 N 20 16.09 Fair CLR 12.2 -6.1 28% 76.5 1017.4
01 08:52 N 9 16.09 Fair CLR 8.9 -7.2 32% 8 76.5 1016.9
01 07:52 Calm 16.09 Fair CLR 5.6 -8.9 35% 76.48 1016.7
01 06:52 Calm 16.09 Fair CLR -1.1 -10.6 49% 76.4 1016.7
01 05:52 NW 6 16.09 Fair CLR -0.6 -10.6 8.3 -1.1 47% 76.38 1016.1
01 04:52 Calm 16.09 Fair CLR -0.6 -10.6 47% 76.38 1016.0
01 03:52 Calm 16.09 Fair CLR 3.3 -9.4 39% 76.35 1015.0
01 02:52 W 17 16.09 Fair CLR 3.9 -9.4 38% 0 76.35 1014.9
01 01:52 NW 15 16.09 Fair CLR 5.6 -8.9 35% 3 76.35 1014.9
01 00:52 N 13 16.09 Fair CLR 7.2 -8.3 33% 5 76.38 1014.8
30 23:52 NW 17 16.09 Fair CLR 7.8 -7.2 18.9 7.2 34% 5 76.33 1014.4
30 22:52 NW 11 16.09 Fair CLR 7.8 -7.2 34% 6 76.3 1014.2
30 21:52 N 9 16.09 Fair CLR 8.3 -7.2 33% 7 76.28 1014.0
30 20:52 N 15 16.09 Fair CLR 12.8 -6.1 26% 76.2 1012.6
30 19:52 N 20 16.09 Fair CLR 15.6 -6.7 21% 76.17 1012.3
30 18:52 N 20 G 43 16.09 Mostly Cloudy BKN095 17.8 -7.8 17% 76.15 1012.9
30 17:52 N 28 G 48 16.09 Mostly Cloudy BKN100 17.8 -6.1 19.4 16.1 19% 76.17 1013.1
30 16:52 N 26 G 43 16.09 Mostly Cloudy BKN100 18.3 -6.1 19% 76.17 1012.6
30 15:52 N 30 G 41 16.09 Fair CLR 17.8 -6.7 18% 76.23 1013.1
30 14:52 N 28 G 52 16.09 Fair CLR 17.8 -6.1 19% 76.28 1013.0
30 13:52 NE 30 G 44 16.09 A Few Clouds FEW085 17.8 -6.1 19% 76.28 1012.9
30 12:52 N 33 G 46 16.09 Fair and Breezy CLR 17.2 -5 22% 76.35 1013.9
30 11:52 NE 26 G 43 16.09 Fair CLR 16.7 -5 16.7 0.6 22% 76.38 1014.8
30 10:52 N 30 G 46 16.09 Fair CLR 15 -4.4 26% 76.4 1015.0
30 09:52 N 20 G 35 16.09 Fair CLR 12.8 -3.3 33% 76.43 1015.5
30 08:52 N 20 16.09 Fair CLR 11.1 -3.3 37% 76.43 1015.7
30 07:52 N 7 16.09 Fair CLR 7.2 -3.3 48% 6 76.43 1015.9
30 06:52 Calm 16.09 Fair CLR 1.1 -5.6 61% 76.4 1016.2
30 05:52 N 9 16.09 Fair CLR 1.1 -5.6 11.1 1.1 61% -1 76.38 1015.8
30 04:52 N 11 16.09 Fair CLR 3.3 -4.4 57% 1 76.38 1015.1
30 03:52 N 13 16.09 Fair CLR 5 -4.4 51% 2 76.38 1015.1
30 02:52 N 15 16.09 A Few Clouds FEW120 8.3 -4.4 41% 6 76.4 1014.8
30 01:52 N 17 16.09 Overcast OVC100 11.1 -4.4 34% 76.43 1015.0
30 00:52 N 15 16.09 Mostly Cloudy BKN100 10.6 -5.6 32% 76.43 1015.1
29 23:52 NW 11 16.09 Mostly Cloudy BKN110 8.9 -5 17.8 8.9 37% 7 76.4 1015.2
29 22:52 N 15 16.09 A Few Clouds FEW120 10.6 -6.7 29% 76.4 1014.9
29 21:52 N 11 16.09 Fair CLR 11.7 -8.3 24% 76.38 1015.2
29 20:52 N 13 16.09 Fair CLR 13.3 -8.9 21% 76.33 1014.5
29 19:52 N 17 16.09 Fair CLR 16.1 -9.4 17% 76.28 1014.2
29 18:52 N 17 16.09 Fair CLR 17.8 -9.4 15% 76.28 1014.1
29 17:52 NE 28 G 39 16.09 A Few Clouds FEW100 17.2 -8.9 19.4 14.4 16% 76.3 1014.5
Date Time (mdt) Wind (kph) Vis. (km) Weather Sky Cond. Air Dwpt Max. Min. Relative Humidity Wind Chill (°C) Heat Index (°C) altimeter (cm) sea level (mb) 1 hr 3 hr 6 hr
6 hour
Temperature (ºC) Pressure Precipitation (cm)